St. James, MN

12:03 AM CDT on October 24, 2019 (GMT -0500)
Saint James Municipal

Weather History for KJYG - June, 2019

Change the Weather History Date:

Saturday, June 8, 2019

  Actual Average Record
Temperature  
Mean Temperature 80 °F -  
Max Temperature 91 °F 80 °F 102 °F (1985)
Min Temperature 68 °F 56 °F 41 °F (1978)
Cooling Degree Days 14    
Growing Degree Days 30 (Base 50)    
Moisture  
Dew Point 55 °F    
Average Humidity 45    
Maximum Humidity 73    
Minimum Humidity 24    
Precipitation  
Precipitation 0.00 in - - ()
Sea Level Pressure  
Sea Level Pressure 29.90 in    
Wind  
Wind Speed 13 mph (SSE)    
Max Wind Speed 20 mph    
Max Gust Speed 28 mph    
Visibility 10 miles    
Events      
Averages and records for this station are not official NWS values.
T = Trace of Precipitation, MM = Missing Value Source: NWS Daily Summary

Daily Weather History Graph

Daily Weather History Graph

Search for Another Location

Airport or City:

Astronomy

Jun. 08, 2019 Rise Set
Actual Time 5:35 AM CDT 8:59 PM CDT
Civil Twilight 4:59 AM CDT 9:35 PM CDT
Nautical Twilight 4:13 AM CDT 10:22 PM CDT
Astronomical Twilight 3:14 AM CDT 11:21 PM CDT
Moon 11:09 AM CDT (6/8) 12:57 AM CDT (6/8)
Length of Visible Light 16h 35m
Length of Day
15h 23m
Waxing Crescent, 33% of the Moon is Illuminated
Jun 8
Waxing Crescent
Jun 10
First Quarter
Jun 17
Full
Jun 25
Last Quarter
Jul 2
New

Hourly Weather History & Observations

Time (CDT) Temp. Heat Index Dew Point Humidity Pressure Visibility Wind Dir Wind Speed Gust Speed Precip Events Conditions
12:05 AM 75.2 °F - 55.4 °F 50% 29.90 in 10.0 mi SE 12.7 mph 18.4 mph N/A   Clear
12:20 AM 75.2 °F - 55.4 °F 50% 29.90 in 10.0 mi SE 12.7 mph - N/A   Clear
12:36 AM 73.4 °F - 57.2 °F 57% 29.90 in 10.0 mi SE 11.5 mph - N/A   Clear
12:55 AM 73.4 °F - 57.2 °F 57% 29.91 in 10.0 mi SSE 10.4 mph - N/A   Clear
1:22 AM 73.4 °F - 57.2 °F 57% 29.91 in 10.0 mi SSE 11.5 mph - N/A   Clear
1:37 AM 73.4 °F - 57.2 °F 57% 29.91 in 10.0 mi SSE 12.7 mph - N/A   Clear
1:55 AM 71.6 °F - 57.2 °F 60% 29.92 in 10.0 mi SSE 12.7 mph - N/A   Clear
1:56 AM 71.6 °F - 57.2 °F 60% 29.92 in 10.0 mi SSE 12.7 mph - N/A   Clear
2:24 AM 71.6 °F - 57.2 °F 60% 29.92 in 10.0 mi SSE 9.2 mph - N/A   Clear
2:39 AM 71.6 °F - 57.2 °F 60% 29.92 in 10.0 mi SSE 10.4 mph - N/A   Clear
2:55 AM 71.6 °F - 59.0 °F 64% 29.92 in 10.0 mi SE 10.4 mph - N/A   Clear
3:25 AM 69.8 °F - 57.2 °F 64% 29.92 in 10.0 mi SE 10.4 mph - N/A   Clear
3:40 AM 69.8 °F - 59.0 °F 68% 29.92 in 10.0 mi SE 10.4 mph - N/A   Clear
3:56 AM 69.8 °F - 59.0 °F 68% 29.92 in 10.0 mi SE 12.7 mph - N/A   Clear
4:15 AM 69.8 °F - 59.0 °F 68% 29.92 in 10.0 mi SE 12.7 mph - N/A   Clear
4:42 AM 69.8 °F - 59.0 °F 68% 29.92 in 10.0 mi SE 12.7 mph - N/A   Clear
4:57 AM 69.8 °F - 59.0 °F 68% 29.92 in 10.0 mi SE 10.4 mph - N/A   Clear
5:15 AM 69.8 °F - 59.0 °F 68% 29.92 in 10.0 mi SE 12.7 mph - N/A   Clear
5:16 AM 69.8 °F - 59.0 °F 68% 29.92 in 10.0 mi SE 12.7 mph - N/A   Clear
5:44 AM 69.8 °F - 59.0 °F 68% 29.93 in 10.0 mi SE 10.4 mph - N/A   Clear
5:59 AM 69.8 °F - 59.0 °F 68% 29.94 in 10.0 mi SSE 10.4 mph - N/A   Clear
6:15 AM 68.0 °F - 59.0 °F 73% 29.93 in 10.0 mi SE 10.4 mph - N/A   Clear
6:45 AM 69.8 °F - 59.0 °F 68% 29.94 in 10.0 mi SSE 10.4 mph - N/A   Clear
7:00 AM 71.6 °F - 59.0 °F 64% 29.94 in 10.0 mi SSE 15.0 mph - N/A   Clear
7:16 AM 71.6 °F - 59.0 °F 64% 29.94 in 10.0 mi SE 15.0 mph - N/A   Clear
7:35 AM 71.6 °F - 59.0 °F 64% 29.94 in 10.0 mi SSE 16.1 mph - N/A   Clear
8:02 AM 75.2 °F - 59.0 °F 57% 29.94 in 10.0 mi SSE 16.1 mph 20.7 mph N/A   Clear
8:17 AM 75.2 °F - 59.0 °F 57% 29.94 in 10.0 mi SSE 18.4 mph 24.2 mph N/A   Clear
8:35 AM 75.2 °F - 59.0 °F 57% 29.94 in 10.0 mi SSE 17.3 mph 24.2 mph N/A   Clear
8:36 AM 75.2 °F - 59.0 °F 57% 29.94 in 10.0 mi SSE 17.3 mph 24.2 mph N/A   Clear
9:03 AM 78.8 °F - 59.0 °F 51% 29.94 in 10.0 mi SSE 16.1 mph - N/A   Clear
9:19 AM 78.8 °F - 60.8 °F 54% 29.94 in 10.0 mi SSE 17.3 mph - N/A   Clear
9:35 AM 80.6 °F 81.1 °F 59.0 °F 48% 29.94 in 10.0 mi South 16.1 mph - N/A   Clear
9:54 AM 80.6 °F 80.8 °F 57.2 °F 45% 29.93 in 10.0 mi SSE 17.3 mph 24.2 mph N/A   Clear
10:05 AM 80.6 °F 80.8 °F 57.2 °F 45% 29.94 in 10.0 mi South 17.3 mph - N/A   Clear
10:20 AM 80.6 °F 80.8 °F 57.2 °F 45% 29.93 in 10.0 mi South 19.6 mph 24.2 mph N/A   Clear
10:36 AM 82.4 °F 82.0 °F 57.2 °F 42% 29.93 in 10.0 mi SSE 17.3 mph 21.9 mph N/A   Clear
10:55 AM 82.4 °F 82.0 °F 57.2 °F 42% 29.93 in 10.0 mi SSE 16.1 mph - N/A   Clear
11:22 AM 84.2 °F 83.5 °F 57.2 °F 40% 29.93 in 10.0 mi SSE 16.1 mph 23.0 mph N/A   Clear
11:37 AM 84.2 °F 83.5 °F 57.2 °F 40% 29.92 in 10.0 mi SSE 16.1 mph 20.7 mph N/A   Clear
11:55 AM 86.0 °F 84.5 °F 55.4 °F 35% 29.92 in 10.0 mi SSE 16.1 mph - N/A   Clear
11:56 AM 86.0 °F 84.5 °F 55.4 °F 35% 29.92 in 10.0 mi SSE 16.1 mph - N/A   Clear
12:23 PM 87.8 °F 86.1 °F 55.4 °F 33% 29.91 in 10.0 mi SE 18.4 mph 23.0 mph N/A   Clear
12:39 PM 87.8 °F 86.5 °F 57.2 °F 35% 29.91 in 10.0 mi SSE 15.0 mph 24.2 mph N/A   Clear
12:55 PM 87.8 °F 86.1 °F 55.4 °F 33% 29.90 in 10.0 mi SSE 17.3 mph 20.7 mph N/A   Clear
1:25 PM 87.8 °F 86.1 °F 55.4 °F 33% 29.89 in 10.0 mi SE 17.3 mph - N/A   Clear
1:40 PM 89.6 °F 87.7 °F 55.4 °F 31% 29.88 in 10.0 mi SSE 13.8 mph 27.6 mph N/A   Clear
1:55 PM 89.6 °F 87.7 °F 55.4 °F 31% 29.88 in 10.0 mi SE 15.0 mph 21.9 mph N/A   Clear
2:15 PM 89.6 °F 87.7 °F 55.4 °F 31% 29.88 in 10.0 mi South 13.8 mph 23.0 mph N/A   Clear
2:42 PM 89.6 °F 87.7 °F 55.4 °F 31% 29.88 in 10.0 mi SE 13.8 mph - N/A   Clear
2:57 PM 89.6 °F 87.7 °F 55.4 °F 31% 29.88 in 10.0 mi SSE 12.7 mph 20.7 mph N/A   Clear
3:15 PM 91.4 °F 89.4 °F 55.4 °F 29% 29.87 in 10.0 mi SE 15.0 mph 23.0 mph N/A   Clear
3:43 PM 91.4 °F 89.1 °F 53.6 °F 28% 29.87 in 10.0 mi SSE 16.1 mph 21.9 mph N/A   Clear
3:58 PM 91.4 °F 89.1 °F 53.6 °F 28% 29.87 in 10.0 mi SE 15.0 mph 23.0 mph N/A   Clear
4:15 PM 91.4 °F 89.1 °F 53.6 °F 28% 29.86 in 10.0 mi SSE 16.1 mph 23.0 mph N/A   Clear
4:45 PM 91.4 °F 89.1 °F 53.6 °F 28% 29.87 in 10.0 mi SSE 13.8 mph 23.0 mph N/A   Clear
5:00 PM 91.4 °F 89.1 °F 53.6 °F 28% 29.86 in 10.0 mi SSE 17.3 mph 23.0 mph N/A   Clear
5:15 PM 91.4 °F - 51.8 °F 26% 29.86 in 10.0 mi SSE 12.7 mph 19.6 mph N/A   Clear
5:35 PM 89.6 °F - 51.8 °F 27% 29.86 in 10.0 mi SE 15.0 mph 24.2 mph N/A   Clear
6:01 PM 91.4 °F - 50.0 °F 24% 29.86 in 10.0 mi SSE 19.6 mph 26.5 mph N/A   Clear
6:17 PM 91.4 °F - 51.8 °F 26% 29.86 in 10.0 mi SSE 13.8 mph 23.0 mph N/A   Clear
6:35 PM 89.6 °F - 51.8 °F 27% 29.85 in 10.0 mi SSE 13.8 mph 19.6 mph N/A   Clear
7:03 PM 89.6 °F - 50.0 °F 26% 29.86 in 10.0 mi SSE 15.0 mph 18.4 mph N/A   Clear
7:18 PM 89.6 °F - 50.0 °F 26% 29.86 in 10.0 mi SE 12.7 mph 16.1 mph N/A   Clear
7:35 PM 89.6 °F - 51.8 °F 27% 29.86 in 10.0 mi SE 11.5 mph 16.1 mph N/A   Clear
7:36 PM 89.6 °F - 51.8 °F 27% 29.86 in 10.0 mi SE 12.7 mph 16.1 mph N/A   Clear
7:53 PM 87.8 °F - 50.0 °F 27% 29.86 in 10.0 mi SE 13.8 mph - N/A   Clear
8:04 PM 87.8 °F - 50.0 °F 27% 29.86 in 10.0 mi SE 12.7 mph - N/A   Clear
8:20 PM 84.2 °F - 50.0 °F 30% 29.87 in 10.0 mi ESE 12.7 mph - N/A   Clear
8:35 PM 84.2 °F - 48.2 °F 29% 29.88 in 10.0 mi SE 12.7 mph - N/A   Clear
9:06 PM 80.6 °F - 48.2 °F 32% 29.88 in 10.0 mi ESE 10.4 mph - N/A   Clear
9:21 PM 78.8 °F - 48.2 °F 34% 29.88 in 10.0 mi SE 10.4 mph - N/A   Clear
9:37 PM 78.8 °F - 48.2 °F 34% 29.88 in 10.0 mi ESE 9.2 mph - N/A   Clear
9:55 PM 77.0 °F - 46.4 °F 34% 29.89 in 10.0 mi ESE 9.2 mph - N/A   Clear
10:23 PM 75.2 °F - 46.4 °F 36% 29.90 in 10.0 mi SE 10.4 mph - N/A   Clear
10:38 PM 75.2 °F - 46.4 °F 36% 29.90 in 10.0 mi SE 9.2 mph - N/A   Clear
10:55 PM 75.2 °F - 46.4 °F 36% 29.91 in 10.0 mi SE 9.2 mph - N/A   Clear
11:24 PM 73.4 °F - 46.4 °F 38% 29.92 in 10.0 mi SSE 9.2 mph - N/A   Clear
11:39 PM 73.4 °F - 48.2 °F 41% 29.92 in 10.0 mi SE 8.1 mph - N/A   Clear
11:56 PM 73.4 °F - 48.2 °F 41% 29.92 in 10.0 mi SE 8.1 mph - N/A   Unknown